Latest Coastal Weather Observations for Eucla

IDS60701

Issued at 9:21 am CST Thursday 18 July 2024 (issued every 10 minutes, with the page automatically refreshed every 10 minutes)

About coastal observations | Map of coastal stations | Coastal observations for SA | Marine services | Other Formats
Station Details ID: 011003 Name: EUCLA Lat: -31.68 Lon: 128.90 Height: 93.1 m
Data from the previous 72 hours. | See also: Recent months at Eucla
Date/Time
CST
Wind Sea
Height
m
Swell Vis
km
Cloud Weather Temp
°C
Press
MSL
hPa
Rain since
9am
mm
Dir  Spd
kts
Gust
kts
Height
m
Period
s
Dir
18/09:00am N 18 28 - - - - - - - 9.7 1018.1 0.0
18/08:53am N 18 28 - - - - - - - 9.3 1017.9 0.0
18/08:30am N 15 22 - - - - - - - 8.4 1018.4 0.0
18/08:00am N 16 23 - - - - - - - 8.1 1018.7 0.0
18/07:30am N 15 20 - - - - - - - 7.6 1019.0 0.0
18/07:00am N 13 19 - - - - - - - 7.3 1019.1 0.0
18/06:30am N 13 19 - - - - - - - 7.4 1019.4 0.0
18/06:00am N 12 16 - - - - - - - 6.6 1019.3 0.0
18/05:30am N 14 19 - - - - - - - 6.8 1019.7 0.0
18/05:00am N 15 20 - - - - - - - 6.8 1020.1 0.0
18/04:30am N 14 18 - - - - - - - 6.9 1020.6 0.0
18/04:00am N 13 17 - - - - - - - 6.8 1020.8 0.0
18/03:30am N 11 15 - - - - - - - 7.1 1021.5 0.0
18/03:00am N 12 16 - - - - - - - 7.6 1021.8 0.0
18/02:30am N 11 16 - - - - - - - 7.5 1021.9 0.0
18/02:00am NNE 11 15 - - - - - - - 7.8 1022.1 0.0
18/01:30am N 10 15 - - - - - - - 7.7 1022.6 0.0
18/01:00am NNE 10 15 - - - - - - - 7.8 1022.8 0.0
18/12:30am NNE 9 13 - - - - - - - 7.3 1023.3 0.0
18/12:00am NNE 7 8 - - - - - - - 7.3 1024.0 0.0
 
Date/Time
CST
Wind Sea
Height
m
Swell Vis
km
Cloud Weather Temp
°C
Press
MSL
hPa
Rain since
9am
mm
Dir  Spd
kts
Gust
kts
Height
m
Period
s
Dir
17/11:30pm NNE 7 8 - - - - - - - 7.0 1024.6 0.0
17/11:00pm N 6 7 - - - - - - - 7.2 1024.9 0.0
17/10:30pm NNE 6 7 - - - - - - - 8.1 1024.5 0.0
17/10:00pm NE 7 9 - - - - - - - 8.4 1024.8 0.0
17/09:30pm NE 7 9 - - - - - - - 9.1 1024.5 0.0
17/09:00pm NNE 6 7 - - - - - - - 8.9 1025.1 0.0
17/08:30pm NNE 5 7 - - - - - - - 9.1 1025.1 0.0
17/08:00pm NE 6 7 - - - - - - - 10.0 1024.8 0.0
17/07:30pm ENE 5 7 - - - - - - - 10.6 1024.7 0.0
17/07:00pm ENE 6 8 - - - - - - - 11.1 1024.3 0.0
17/06:30pm ENE 5 7 - - - - - - - 11.6 1024.0 0.0
17/06:00pm E 5 7 - - - - - - - 12.6 1024.2 0.0
17/05:30pm ESE 6 9 - - - - - - - 13.5 1024.3 0.0
17/05:00pm ESE 7 10 - - - - - - - 13.9 1024.4 0.0
17/04:30pm SE 7 9 - - - - - - - 14.7 1024.7 0.0
17/04:00pm SE 6 10 - - - - - - - 14.9 1025.0 0.0
17/03:30pm SE 7 10 - - - - - - - 14.8 1025.1 0.0
17/03:00pm SSE 6 9 - - - - - - - 14.9 1025.1 0.0
17/02:30pm SE 7 10 - - - - - - - 16.3 1025.3 0.0
17/02:00pm SSE 6 8 - - - - - - - 15.2 1025.8 0.0
17/01:30pm S 5 7 - - - - - - - 15.4 1026.1 0.0
17/01:00pm SSW 7 9 - - - - - - - 15.2 1026.3 0.0
17/12:30pm ESE 5 8 - - - - - - - 16.1 1026.6 0.0
17/12:00pm SSW 4 6 - - - - - - - 15.3 1027.2 0.0
17/11:30am SW 5 6 - - - - - - - 14.6 1027.7 0.0
17/11:00am SSW 5 7 - - - - - - - 14.2 1027.9 0.0
17/10:30am WSW 4 7 - - - - - - - 14.7 1027.7 0.4
17/10:00am W 5 6 - - - - - - - 14.0 1027.8 0.4
17/09:30am W 5 7 - - - - - - - 12.9 1027.9 0.4
17/09:00am WNW 4 4 - - - - - - - 11.3 1027.4 0.4
17/08:30am WNW 5 5 - - - - - - - 9.3 1027.4 0.4
17/08:00am WNW 6 6 - - - - - - - 8.4 1027.3 0.4
17/07:30am WNW 5 6 - - - - - - - 7.5 1026.9 0.4
17/07:00am WNW 5 6 - - - - - - - 7.4 1026.6 0.4
17/06:30am WNW 4 5 - - - - - - - 7.7 1026.3 0.4
17/06:00am WNW 5 6 - - - - - - - 8.1 1026.1 0.4
17/05:30am W 6 8 - - - - - - - 8.2 1026.2 0.4
17/05:00am WNW 4 5 - - - - - - - 8.6 1026.4 0.4
17/04:30am WNW 5 6 - - - - - - - 9.0 1026.5 0.4
17/04:00am WNW 5 6 - - - - - - - 9.1 1026.6 0.4
17/03:30am WNW 4 4 - - - - - - - 9.2 1026.5 0.4
17/03:00am W 5 6 - - - - - - - 10.4 1026.6 0.4
17/02:30am WNW 5 7 - - - - - - - 9.9 1026.9 0.4
17/02:00am NW 4 5 - - - - - - - 9.4 1027.1 0.4
17/01:30am WNW 4 5 - - - - - - - 10.0 1027.3 0.4
17/01:00am W 4 5 - - - - - - - 10.8 1027.6 0.4
17/12:30am W 5 6 - - - - - - - 11.0 1028.2 0.4
17/12:00am W 4 5 - - - - - - - 11.0 1028.0 0.4
 
Date/Time
CST
Wind Sea
Height
m
Swell Vis
km
Cloud Weather Temp
°C
Press
MSL
hPa
Rain since
9am
mm
Dir  Spd
kts
Gust
kts
Height
m
Period
s
Dir
16/11:30pm WNW 5 5 - - - - - - - 11.4 1028.0 0.4
16/11:00pm W 4 5 - - - - - - - 11.3 1027.8 0.4
16/10:30pm WSW 4 4 - - - - - - - 11.2 1028.0 0.4
16/10:00pm W 5 5 - - - - - - - 7.6 1028.0 0.4
16/09:30pm W 5 5 - - - - - - - 7.2 1028.0 0.4
16/09:00pm SW 4 5 - - - - - - - 7.6 1027.8 0.4
16/08:30pm SSW 4 5 - - - - - - - 8.5 1027.5 0.4
16/08:00pm SSE 4 4 - - - - - - - 9.3 1027.2 0.4
16/07:30pm S 3 5 - - - - - - - 9.5 1027.1 0.4
16/07:00pm S 4 4 - - - - - - - 10.9 1027.1 0.4
16/06:30pm SSE 1 4 - - - - - - - 11.1 1026.8 0.4
16/06:00pm SSE 4 5 - - - - - - - 12.5 1026.8 0.4
16/05:30pm SSE 6 8 - - - - - - - 13.3 1026.8 0.4
16/05:00pm SSE 6 8 - - - - - - - 14.0 1026.7 0.4
16/04:30pm SE 6 8 - - - - - - - 14.9 1026.8 0.4
16/04:00pm SE 6 8 - - - - - - - 14.3 1026.7 0.4
16/03:30pm SSE 8 12 - - - - - - - 15.3 1026.5 0.4
16/03:00pm SE 8 12 - - - - - - - 15.3 1026.4 0.4
16/02:30pm S 8 14 - - - - - - - 15.7 1026.6 0.4
16/02:00pm S 8 12 - - - - - - - 16.1 1026.9 0.2
16/01:30pm SSE 8 12 - - - - - - - 15.8 1027.1 0.2
16/01:00pm S 8 10 - - - - - - - 15.9 1027.6 0.2
16/12:30pm SSE 6 10 - - - - - - - 15.0 1028.0 0.2
16/12:00pm S 9 15 - - - - - - - 13.2 1028.7 0.2
16/11:30am SSW 7 10 - - - - - - - 16.0 1028.6 0.0
16/11:00am WSW 6 9 - - - - - - - 14.5 1028.8 0.0
16/10:30am WSW 5 7 - - - - - - - 12.9 1028.8 0.2
16/10:00am WSW 6 10 - - - - - - - 12.2 1028.7 0.2
16/09:30am WSW 5 8 - - - - - - - 12.2 1028.2 0.2
16/09:00am WSW 5 7 - - - - - - - 10.6 1027.9 0.2
16/08:30am W 5 5 - - - - - - - 9.6 1027.6 0.2
16/08:00am W 5 6 - - - - - - - 10.0 1027.2 0.2
16/07:30am W 5 7 - - - - - - - 10.0 1027.0 0.2
16/07:00am WSW 5 7 - - - - - - - 10.0 1026.5 0.2
16/06:30am W 5 6 - - - - - - - 9.7 1026.2 0.2
16/06:00am WSW 5 6 - - - - - - - 8.9 1025.9 0.2
16/05:30am WSW 5 5 - - - - - - - 9.2 1025.5 0.2
16/05:00am W 5 5 - - - - - - - 9.4 1025.8 0.2
16/04:30am W 3 5 - - - - - - - 10.2 1026.0 0.2
16/04:00am SW 4 7 - - - - - - - 11.3 1025.5 0.2
16/03:30am S 4 5 - - - - - - - 11.1 1025.6 0.2
16/03:00am SSW 4 5 - - - - - - - 10.2 1025.3 0.2
16/02:30am WSW 4 5 - - - - - - - 9.9 1025.3 0.2
16/02:00am SW 4 5 - - - - - - - 9.7 1025.3 0.2
16/01:30am S 3 5 - - - - - - - 11.0 1025.3 0.2
16/01:00am CALM 0 3 - - - - - - - 10.6 1025.3 0.2
16/12:30am SSE 4 6 - - - - - - - 11.6 1025.2 0.2
16/12:00am SSE 5 8 - - - - - - - 12.3 1025.6 0.2
 
Date/Time
CST
Wind Sea
Height
m
Swell Vis
km
Cloud Weather Temp
°C
Press
MSL
hPa
Rain since
9am
mm
Dir  Spd
kts
Gust
kts
Height
m
Period
s
Dir
15/11:30pm SSE 5 7 - - - - - - - 11.8 1025.6 0.2
15/11:00pm SSE 6 8 - - - - - - - 12.0 1025.5 0.2
15/10:30pm SSE 5 8 - - - - - - - 12.1 1025.4 0.2
15/10:00pm S 5 7 - - - - - - - 11.9 1025.2 0.2
15/09:30pm S 5 9 - - - - - - - 11.7 1025.1 0.2
15/09:00pm SSE 5 7 - - - - - - - 11.7 1025.1 0.2
15/08:30pm S 4 6 - - - - - - - 11.7 1025.1 0.0
15/08:00pm S 4 5 - - - - - - - 11.9 1024.8 0.0
15/07:30pm S 4 6 - - - - - - - 12.0 1024.4 0.0
15/07:00pm S 4 5 - - - - - - - 12.4 1024.3 0.0
15/06:30pm S 4 5 - - - - - - - 12.5 1024.1 0.0
15/06:00pm S 5 7 - - - - - - - 12.8 1023.7 0.0
15/05:30pm S 7 10 - - - - - - - 13.9 1023.5 0.0
15/05:00pm S 7 11 - - - - - - - 14.6 1023.2 0.0
15/04:30pm S 8 12 - - - - - - - 15.2 1023.0 0.0
15/04:00pm S 8 13 - - - - - - - 15.4 1022.7 0.0
15/03:30pm S 8 10 - - - - - - - 15.4 1022.6 0.0
15/03:00pm S 8 10 - - - - - - - 15.4 1022.4 0.0
15/02:30pm S 7 13 - - - - - - - 16.5 1022.3 0.0
15/02:00pm S 7 12 - - - - - - - 15.9 1022.5 0.0
15/01:30pm S 7 13 - - - - - - - 16.4 1022.6 0.0
15/01:00pm S 7 10 - - - - - - - 16.0 1023.0 0.0
15/12:30pm SSE 7 10 - - - - - - - 16.2 1023.4 0.0
15/12:00pm S 6 9 - - - - - - - 15.9 1023.8 0.0
15/11:30am SSW 5 7 - - - - - - - 15.2 1024.0 0.0
15/11:00am SW 5 8 - - - - - - - 14.6 1024.2 0.0
15/10:30am WSW 4 6 - - - - - - - 13.5 1024.1 1.8
15/10:00am W 4 5 - - - - - - - 12.8 1023.8 1.8
15/09:30am W 3 4 - - - - - - - 12.2 1023.6 1.8

Other formats

Comma delimited format used in spreadsheet applications
http://www.bom.gov.au/fwo/IDS60701/IDS60701.94647.axf

JavaScript Object Notation format (JSON) in row-major order
http://www.bom.gov.au/fwo/IDS60701/IDS60701.94647.json

Data quality

Most of these data are generated automatically and are frequently updated. Quality checks on data are not normally performed. It is possible for incorrect values to appear. Refer to information at About Latest Weather Observations and please check the disclaimer before using these data.